createdAt,value
2023-05-04T05:00:50.316Z,56.25
2023-05-04T05:01:50.041Z,56.25
2023-05-04T05:02:50.083Z,56.25
2023-05-04T05:03:50.041Z,56.25
2023-05-04T05:04:50.105Z,56.25
2023-05-04T05:05:50.005Z,56.25
2023-05-04T05:06:50.001Z,56.25
2023-05-04T05:07:49.971Z,56.25
2023-05-04T05:08:49.960Z,56.25
2023-05-04T05:09:49.962Z,56.25
2023-05-04T05:10:49.946Z,61.88
2023-05-04T05:11:54.967Z,61.88
2023-05-04T05:12:49.975Z,61.88
2023-05-04T05:13:49.903Z,67.50
2023-05-04T05:14:49.911Z,67.50
2023-05-04T05:15:49.888Z,67.50
2023-05-04T05:16:49.918Z,67.50
2023-05-04T05:17:49.899Z,67.50
2023-05-04T05:18:49.847Z,67.50
2023-05-04T05:19:49.835Z,67.50
2023-05-04T05:20:49.931Z,67.50
2023-05-04T05:21:49.812Z,67.50
2023-05-04T05:22:54.822Z,67.50
2023-05-04T05:23:49.820Z,67.50
2023-05-04T05:24:49.794Z,67.50
2023-05-04T05:25:49.780Z,61.88
2023-05-04T05:26:49.760Z,61.88
2023-05-04T05:27:49.753Z,67.50
2023-05-04T05:28:49.738Z,67.50
2023-05-04T05:29:49.721Z,67.50
2023-05-04T05:30:49.758Z,73.12
2023-05-04T05:31:49.701Z,73.12
2023-05-04T05:32:49.860Z,73.12
2023-05-04T05:33:54.698Z,78.75
2023-05-04T05:34:49.663Z,78.75
2023-05-04T05:35:49.659Z,84.38
2023-05-04T05:36:49.661Z,90.00
2023-05-04T05:37:49.635Z,90.00
2023-05-04T05:38:50.340Z,90.00
2023-05-04T05:39:49.618Z,90.00
2023-05-04T05:40:49.610Z,90.00
2023-05-04T05:41:49.587Z,95.62
2023-05-04T05:42:49.580Z,95.62
2023-05-04T05:43:49.577Z,95.62
2023-05-04T05:44:54.615Z,95.62
2023-05-04T05:45:49.598Z,101.25
2023-05-04T05:46:49.538Z,101.25
2023-05-04T05:47:49.548Z,101.25
2023-05-04T05:48:49.542Z,90.00
2023-05-04T05:49:49.499Z,101.25
2023-05-04T05:50:49.516Z,106.88
2023-05-04T05:51:49.472Z,112.50
2023-05-04T05:52:49.464Z,118.12
2023-05-04T05:53:49.457Z,123.75
2023-05-04T05:54:49.449Z,123.75
2023-05-04T05:55:54.485Z,112.50
2023-05-04T05:56:49.438Z,140.62
2023-05-04T05:57:49.406Z,157.50
2023-05-04T05:58:49.390Z,163.12
2023-05-04T05:59:49.380Z,157.50
2023-05-04T06:00:49.388Z,163.12
2023-05-04T06:01:49.359Z,146.25
2023-05-04T06:02:49.446Z,157.50
2023-05-04T06:03:49.543Z,157.50
2023-05-04T06:04:49.400Z,174.38
2023-05-04T06:05:49.322Z,168.75
2023-05-04T06:06:54.335Z,180.00
2023-05-04T06:07:49.288Z,168.75
2023-05-04T06:08:49.296Z,174.38
2023-05-04T06:09:49.266Z,180.00
2023-05-04T06:10:49.269Z,202.50
2023-05-04T06:11:49.247Z,191.25
2023-05-04T06:12:49.297Z,180.00
2023-05-04T06:13:49.220Z,185.62
2023-05-04T06:14:49.227Z,185.62
2023-05-04T06:15:49.226Z,174.38
2023-05-04T06:16:49.227Z,168.75
2023-05-04T06:17:54.226Z,151.88
2023-05-04T06:18:49.167Z,157.50
2023-05-04T06:19:50.903Z,174.38
2023-05-04T06:20:49.181Z,180.00
2023-05-04T06:21:49.142Z,191.25
2023-05-04T06:22:49.120Z,202.50
2023-05-04T06:23:49.107Z,191.25
2023-05-04T06:24:49.099Z,225.00
2023-05-04T06:25:49.090Z,219.38
2023-05-04T06:26:49.105Z,219.38
2023-05-04T06:27:49.062Z,219.38
2023-05-04T06:28:54.082Z,213.75
2023-05-04T06:29:49.038Z,253.12
2023-05-04T06:30:49.024Z,236.25
2023-05-04T06:31:49.058Z,241.88
2023-05-04T06:32:49.054Z,247.50
2023-05-04T06:33:48.992Z,264.38
2023-05-04T06:34:48.981Z,298.12
2023-05-04T06:35:48.965Z,303.75
2023-05-04T06:36:48.991Z,270.00
2023-05-04T06:38:48.949Z,264.38
2023-05-04T06:39:53.959Z,247.50
2023-05-04T06:40:48.914Z,225.00
2023-05-04T06:41:48.908Z,202.50
2023-05-04T06:42:48.888Z,180.00
2023-05-04T06:43:48.879Z,174.38
2023-05-04T06:44:48.889Z,168.75
2023-05-04T06:45:48.904Z,174.38
2023-05-04T06:46:48.862Z,196.88
2023-05-04T06:47:48.872Z,213.75
2023-05-04T06:48:48.820Z,202.50
2023-05-04T06:49:48.804Z,213.75
2023-05-04T06:50:53.833Z,202.50
2023-05-04T06:51:48.799Z,185.62
2023-05-04T06:52:48.818Z,191.25
2023-05-04T06:53:48.769Z,174.38
2023-05-04T06:54:48.756Z,168.75
2023-05-04T06:55:48.750Z,168.75
2023-05-04T06:56:48.745Z,151.88
2023-05-04T06:57:48.723Z,163.12
2023-05-04T06:58:48.710Z,180.00
2023-05-04T06:59:48.695Z,208.12
2023-05-04T07:00:48.727Z,185.62
2023-05-04T07:01:53.697Z,174.38
2023-05-04T07:02:48.691Z,185.62
2023-05-04T07:03:48.675Z,213.75
2023-05-04T07:04:48.640Z,236.25
2023-05-04T07:05:48.678Z,241.88
2023-05-04T07:06:48.619Z,208.12
2023-05-04T07:07:51.089Z,236.25
2023-05-04T07:08:48.646Z,225.00
2023-05-04T07:09:48.588Z,185.62
2023-05-04T07:10:48.579Z,157.50
2023-05-04T07:11:48.614Z,168.75
2023-05-04T07:12:53.599Z,168.75
2023-05-04T07:13:48.540Z,180.00
2023-05-04T07:14:48.552Z,185.62
2023-05-04T07:15:48.536Z,174.38
2023-05-04T07:16:48.627Z,174.38
2023-05-04T07:17:48.526Z,168.75
2023-05-04T07:18:48.480Z,174.38
2023-05-04T07:19:48.467Z,202.50
2023-05-04T07:20:48.471Z,253.12
2023-05-04T07:21:48.500Z,264.38
2023-05-04T07:22:48.434Z,264.38
2023-05-04T07:23:53.539Z,286.88
2023-05-04T07:24:48.438Z,253.12
2023-05-04T07:25:48.422Z,230.62
2023-05-04T07:26:48.391Z,202.50
2023-05-04T07:27:48.404Z,213.75
2023-05-04T07:28:48.369Z,219.38
2023-05-04T07:29:48.361Z,236.25
2023-05-04T07:30:48.359Z,253.12
2023-05-04T07:31:48.360Z,264.38
2023-05-04T07:32:48.357Z,298.12
2023-05-04T07:33:48.323Z,320.62
2023-05-04T07:34:53.321Z,292.50
2023-05-04T07:35:48.303Z,286.88
2023-05-04T07:36:48.282Z,241.88
2023-05-04T07:37:48.266Z,202.50
2023-05-04T07:38:48.262Z,191.25
2023-05-04T07:39:48.299Z,185.62
2023-05-04T07:40:48.241Z,180.00
2023-05-04T07:41:49.682Z,191.25
2023-05-04T07:42:48.237Z,191.25
2023-05-04T07:43:48.192Z,163.12
2023-05-04T07:44:48.207Z,163.12
2023-05-04T07:45:53.241Z,208.12
2023-05-04T07:46:48.160Z,236.25
2023-05-04T07:47:48.168Z,264.38
2023-05-04T07:48:48.139Z,281.25
2023-05-04T07:49:48.139Z,270.00
2023-05-04T07:50:48.113Z,236.25
2023-05-04T07:51:48.126Z,258.75
2023-05-04T07:52:48.097Z,343.12
2023-05-04T07:53:48.077Z,309.38
2023-05-04T07:54:48.077Z,219.38
2023-05-04T07:55:48.380Z,213.75
2023-05-04T07:56:53.072Z,286.88
2023-05-04T07:57:48.064Z,320.62
2023-05-04T07:58:48.030Z,292.50
2023-05-04T07:59:48.026Z,196.88
2023-05-04T08:00:48.003Z,191.25
2023-05-04T08:01:48.021Z,202.50
2023-05-04T08:02:48.077Z,213.75
2023-05-04T08:03:48.005Z,264.38
2023-05-04T08:04:47.955Z,292.50
2023-05-04T08:05:47.955Z,309.38
2023-05-04T08:06:47.932Z,309.38
2023-05-04T08:07:52.943Z,298.12
2023-05-04T08:08:47.915Z,281.25
2023-05-04T08:09:47.938Z,281.25
2023-05-04T08:10:47.931Z,281.25
2023-05-04T08:11:48.285Z,286.88
2023-05-04T08:12:47.920Z,303.75
2023-05-04T08:13:47.862Z,331.88
2023-05-04T08:14:47.859Z,410.62
2023-05-04T08:15:47.838Z,382.50
2023-05-04T08:16:47.865Z,326.25
2023-05-04T08:17:47.821Z,326.25
2023-05-04T08:18:52.833Z,433.12
2023-05-04T08:19:47.806Z,438.75
2023-05-04T08:20:47.809Z,343.12
2023-05-04T08:21:47.770Z,292.50
2023-05-04T08:22:47.776Z,281.25
2023-05-04T08:23:47.743Z,360.00
2023-05-04T08:24:47.740Z,309.38
2023-05-04T08:25:47.737Z,360.00
2023-05-04T08:26:59.729Z,410.62
2023-05-04T08:27:47.749Z,652.50
2023-05-04T08:28:47.713Z,675.00
2023-05-04T08:29:47.682Z,540.00
2023-05-04T08:30:47.678Z,776.25
2023-05-04T08:31:52.721Z,1558.12
2023-05-04T08:32:47.703Z,759.38
2023-05-04T08:33:47.640Z,714.38
2023-05-04T08:34:47.647Z,742.50
2023-05-04T08:35:47.611Z,461.25
2023-05-04T08:36:47.627Z,354.38
2023-05-04T08:37:47.591Z,309.38
2023-05-04T08:38:47.586Z,630.00
2023-05-04T08:39:47.584Z,1108.12
2023-05-04T08:40:49.973Z,376.88
2023-05-04T08:41:47.555Z,354.38
2023-05-04T08:42:52.674Z,281.25
2023-05-04T08:43:47.538Z,309.38
2023-05-04T08:44:47.526Z,641.25
2023-05-04T08:45:47.551Z,765.00
2023-05-04T08:46:47.509Z,905.62
2023-05-04T08:47:47.528Z,731.25
2023-05-04T08:48:47.489Z,635.62
2023-05-04T08:49:47.465Z,714.38
2023-05-04T08:50:47.451Z,1276.88
2023-05-04T08:51:47.446Z,708.75
2023-05-04T08:52:47.446Z,613.12
2023-05-04T08:53:52.503Z,433.12
2023-05-04T08:54:47.413Z,1113.75
2023-05-04T08:55:47.393Z,798.75
2023-05-04T08:56:47.394Z,585.00
2023-05-04T08:57:48.581Z,478.12
2023-05-04T08:58:47.413Z,1186.88
2023-05-04T08:59:47.368Z,1254.38
2023-05-04T09:00:47.381Z,1153.12
2023-05-04T09:01:47.355Z,916.88
2023-05-04T09:02:47.452Z,995.62
2023-05-04T09:03:47.436Z,1029.38
2023-05-04T09:04:52.312Z,708.75
2023-05-04T09:05:47.297Z,1136.25
2023-05-04T09:06:47.272Z,950.62
2023-05-04T09:07:47.266Z,1063.12
2023-05-04T09:08:47.252Z,843.75
2023-05-04T09:09:47.244Z,534.38
2023-05-04T09:10:47.226Z,540.00
2023-05-04T09:11:47.235Z,354.38
2023-05-04T09:12:47.244Z,326.25
2023-05-04T09:13:47.192Z,331.88
2023-05-04T09:14:47.202Z,331.88
2023-05-04T09:15:52.192Z,354.38
2023-05-04T09:16:47.223Z,568.12
2023-05-04T09:17:56.921Z,1226.25
2023-05-04T09:18:47.131Z,1074.38
2023-05-04T09:19:47.126Z,472.50
2023-05-04T09:20:47.146Z,405.00
2023-05-04T09:21:47.128Z,556.88
2023-05-04T09:22:47.102Z,652.50
2023-05-04T09:23:47.159Z,652.50
2023-05-04T09:24:47.060Z,1248.75
2023-05-04T09:25:47.055Z,1355.62
2023-05-04T09:26:52.076Z,1766.25
2023-05-04T09:27:47.031Z,1063.12
2023-05-04T09:28:47.016Z,590.62
2023-05-04T09:29:47.082Z,641.25
2023-05-04T09:30:47.172Z,748.12
2023-05-04T09:31:47.000Z,697.50
2023-05-04T09:32:47.014Z,753.75
2023-05-04T09:33:46.986Z,933.75
2023-05-04T09:34:46.948Z,1423.12
2023-05-04T09:35:46.984Z,1445.62
2023-05-04T09:36:46.966Z,1260.00
2023-05-04T09:37:51.958Z,1040.62
2023-05-04T09:38:46.935Z,646.88
2023-05-04T09:39:46.897Z,736.88
2023-05-04T09:40:46.891Z,1035.00
2023-05-04T09:41:46.889Z,832.50
2023-05-04T09:42:46.860Z,961.88
2023-05-04T09:43:46.870Z,961.88
2023-05-04T09:44:46.846Z,1125.00
2023-05-04T09:45:46.835Z,663.75
2023-05-04T09:46:47.000Z,1085.62
2023-05-04T09:47:46.868Z,731.25
2023-05-04T09:48:51.816Z,849.38
2023-05-04T09:49:46.793Z,585.00
2023-05-04T09:50:46.789Z,556.88
2023-05-04T09:51:46.766Z,466.88
2023-05-04T09:52:46.746Z,478.12
2023-05-04T09:53:46.757Z,517.50
2023-05-04T09:54:46.732Z,545.62
2023-05-04T09:55:46.722Z,596.25
2023-05-04T09:56:46.701Z,663.75
2023-05-04T09:57:46.689Z,759.38
2023-05-04T09:58:46.689Z,956.25
2023-05-04T09:59:51.705Z,956.25
2023-05-04T10:00:46.668Z,922.50
2023-05-04T10:01:46.676Z,1113.75
2023-05-04T10:02:46.916Z,950.62
2023-05-04T10:03:46.637Z,1136.25
2023-05-04T10:04:46.642Z,720.00
2023-05-04T10:05:46.645Z,652.50
2023-05-04T10:06:46.591Z,1141.88
2023-05-04T10:07:46.618Z,1012.50
2023-05-04T10:08:46.577Z,663.75
2023-05-04T10:09:46.569Z,686.25
2023-05-04T10:10:51.623Z,551.25
2023-05-04T10:11:46.537Z,601.88
2023-05-04T10:12:46.543Z,585.00
2023-05-04T10:13:46.521Z,579.38
2023-05-04T10:14:46.506Z,624.38
2023-05-04T10:15:46.536Z,624.38
2023-05-04T10:16:46.491Z,1102.50
2023-05-04T10:17:46.516Z,1260.00
2023-05-04T10:18:46.541Z,1648.12
2023-05-04T10:19:46.446Z,2086.88
2023-05-04T10:20:46.433Z,1788.75
2023-05-04T10:21:51.443Z,1012.50
2023-05-04T10:22:46.431Z,928.12
2023-05-04T10:23:46.405Z,1063.12
2023-05-04T10:24:46.388Z,658.12
2023-05-04T10:25:46.381Z,928.12
2023-05-04T10:26:46.365Z,669.38
2023-05-04T10:27:46.358Z,1282.50
2023-05-04T10:28:46.382Z,1344.38
2023-05-04T10:29:46.332Z,691.88
2023-05-04T10:30:46.318Z,793.12
2023-05-04T10:31:46.369Z,894.38
2023-05-04T10:32:51.376Z,1378.12
2023-05-04T10:33:46.298Z,950.62
2023-05-04T10:34:46.324Z,1248.75
2023-05-04T10:35:46.267Z,781.88
2023-05-04T10:36:46.248Z,793.12
2023-05-04T10:37:46.263Z,776.25
2023-05-04T10:38:46.229Z,922.50
2023-05-04T10:39:46.224Z,765.00
2023-05-04T10:40:46.209Z,911.25
2023-05-04T10:41:46.226Z,877.50
2023-05-04T10:42:46.204Z,753.75
2023-05-04T10:43:51.198Z,1147.50
2023-05-04T10:44:46.161Z,1811.25
2023-05-04T10:45:46.194Z,1451.25
2023-05-04T10:46:46.177Z,1321.88
2023-05-04T10:47:46.245Z,1316.25
2023-05-04T10:48:46.137Z,1400.62
2023-05-04T10:49:46.115Z,900.00
2023-05-04T10:50:46.124Z,860.62
2023-05-04T10:51:49.347Z,810.00
2023-05-04T10:52:46.072Z,1035.00
2023-05-04T10:53:46.096Z,1029.38
2023-05-04T10:54:51.073Z,540.00
2023-05-04T10:55:46.050Z,877.50
2023-05-04T10:56:46.045Z,686.25
2023-05-04T10:57:46.037Z,714.38
2023-05-04T10:58:46.008Z,781.88
2023-05-04T10:59:46.021Z,708.75
2023-05-04T11:00:45.999Z,1209.38
2023-05-04T11:01:46.043Z,916.88
2023-05-04T11:02:46.049Z,1203.75
2023-05-04T11:03:45.978Z,1333.12
2023-05-04T11:04:45.938Z,1721.25
2023-05-04T11:05:51.001Z,1693.12
2023-05-04T11:06:45.925Z,871.88
2023-05-04T11:07:45.906Z,978.75
2023-05-04T11:08:45.905Z,1181.25
2023-05-04T11:09:45.905Z,1248.75
2023-05-04T11:10:45.896Z,1732.50
2023-05-04T11:11:45.878Z,1485.00
2023-05-04T11:12:45.923Z,1333.12
2023-05-04T11:13:45.841Z,956.25
2023-05-04T11:14:45.842Z,1074.38
2023-05-04T11:15:45.829Z,1282.50
2023-05-04T11:16:50.858Z,2120.62
2023-05-04T11:17:45.863Z,1918.12
2023-05-04T11:18:45.795Z,2238.75
2023-05-04T11:19:45.781Z,2418.75
2023-05-04T11:20:45.762Z,1760.62
2023-05-04T11:21:45.827Z,1456.88
2023-05-04T11:22:45.748Z,1186.88
2023-05-04T11:23:45.743Z,1085.62
2023-05-04T11:24:45.725Z,916.88
2023-05-04T11:25:45.716Z,1901.25
2023-05-04T11:26:45.694Z,1822.50
2023-05-04T11:27:50.713Z,1524.38
2023-05-04T11:28:45.703Z,1670.62
2023-05-04T11:29:45.720Z,1254.38
2023-05-04T11:30:45.650Z,1063.12
2023-05-04T11:31:45.657Z,680.62
2023-05-04T11:32:45.676Z,607.50
2023-05-04T11:33:45.625Z,770.62
2023-05-04T11:34:45.604Z,781.88
2023-05-04T11:35:45.622Z,1085.62
2023-05-04T11:36:45.585Z,1175.62
2023-05-04T11:37:45.598Z,1203.75
2023-05-04T11:38:45.574Z,691.88
2023-05-04T11:39:45.554Z,680.62
2023-05-04T11:40:50.634Z,1170.00
2023-05-04T11:41:45.554Z,759.38
2023-05-04T11:42:45.539Z,1316.25
2023-05-04T11:43:45.515Z,1631.25
2023-05-04T11:44:45.492Z,1890.00
2023-05-04T11:45:45.482Z,1929.38
2023-05-04T11:46:45.521Z,2126.25
2023-05-04T11:47:45.525Z,2576.25
2023-05-04T11:48:45.465Z,3031.88
2023-05-04T11:49:45.440Z,2986.88
2023-05-04T11:50:45.427Z,2941.88
2023-05-04T11:51:45.418Z,3110.62
2023-05-04T11:52:45.457Z,3240.00
2023-05-04T11:53:50.438Z,3262.50
2023-05-04T11:54:45.408Z,3386.25
2023-05-04T11:55:45.400Z,3594.38
2023-05-04T11:56:45.361Z,3774.38
2023-05-04T11:57:45.360Z,3830.62
2023-05-04T11:58:45.365Z,3796.88
2023-05-04T11:59:45.397Z,3830.62
2023-05-04T12:00:45.319Z,3796.88
2023-05-04T12:01:45.306Z,3819.38
2023-05-04T12:02:45.389Z,3841.88
2023-05-04T12:03:53.799Z,3858.75
2023-05-04T12:04:45.297Z,3825.00
2023-05-04T12:05:45.300Z,3960.00
2023-05-04T12:06:50.288Z,3920.62
2023-05-04T12:07:45.313Z,3898.12
2023-05-04T12:08:45.260Z,3881.25
2023-05-04T12:09:45.250Z,3982.50
2023-05-04T12:10:45.244Z,3892.50
2023-05-04T12:11:45.215Z,3757.50
2023-05-04T12:12:45.212Z,3847.50
2023-05-04T12:13:45.189Z,3881.25
2023-05-04T12:14:45.167Z,3999.38
2023-05-04T12:15:45.171Z,3723.75
2023-05-04T12:16:45.211Z,3425.62
2023-05-04T12:17:45.170Z,3200.62
2023-05-04T12:18:45.138Z,3234.38
2023-05-04T12:19:50.135Z,3223.12
2023-05-04T12:20:45.101Z,3363.75
2023-05-04T12:21:45.103Z,3453.75
2023-05-04T12:22:45.119Z,3476.25
2023-05-04T12:23:45.096Z,3279.38
2023-05-04T12:24:45.068Z,3172.50
2023-05-04T12:25:57.302Z,3150.00
2023-05-04T12:26:46.048Z,2953.12
2023-05-04T12:27:45.038Z,2514.38
2023-05-04T12:28:45.067Z,2598.75
2023-05-04T12:29:45.007Z,1715.62
2023-05-04T12:30:50.023Z,551.25
2023-05-04T12:31:45.052Z,365.62
2023-05-04T12:32:45.001Z,315.00
2023-05-04T12:33:44.965Z,298.12
2023-05-04T12:34:44.979Z,281.25
2023-05-04T12:35:44.952Z,270.00
2023-05-04T12:36:44.940Z,258.75
2023-05-04T12:37:44.920Z,253.12
2023-05-04T12:38:44.914Z,241.88
2023-05-04T12:39:44.906Z,236.25
2023-05-04T12:40:44.930Z,219.38
2023-05-04T12:41:49.927Z,208.12
2023-05-04T12:42:44.871Z,208.12
2023-05-04T12:43:44.854Z,208.12
2023-05-04T12:44:44.848Z,219.38
2023-05-04T12:45:44.859Z,219.38
2023-05-04T12:46:44.828Z,219.38
2023-05-04T12:47:44.835Z,219.38
2023-05-04T12:48:44.794Z,225.00
2023-05-04T12:49:44.797Z,213.75
2023-05-04T12:50:44.776Z,208.12
2023-05-04T12:51:44.760Z,208.12
2023-05-04T12:52:49.799Z,202.50
2023-05-04T12:53:44.773Z,196.88
2023-05-04T12:54:44.760Z,191.25
2023-05-04T12:55:44.716Z,185.62
2023-05-04T12:56:44.707Z,180.00
2023-05-04T12:57:44.735Z,180.00
2023-05-04T12:58:44.734Z,180.00
2023-05-04T12:59:44.683Z,174.38
2023-05-04T13:00:46.144Z,174.38
2023-05-04T13:01:44.750Z,174.38
2023-05-04T13:02:44.711Z,174.38
2023-05-04T13:03:44.763Z,174.38
2023-05-04T13:04:44.636Z,174.38
2023-05-04T13:05:49.667Z,174.38
2023-05-04T13:06:46.298Z,180.00
2023-05-04T13:07:44.595Z,174.38
2023-05-04T13:08:44.582Z,174.38
2023-05-04T13:09:44.568Z,174.38
2023-05-04T13:10:44.565Z,174.38
2023-05-04T13:11:44.541Z,174.38
2023-05-04T13:12:46.117Z,174.38
2023-05-04T13:13:44.547Z,180.00
2023-05-04T13:14:44.508Z,174.38
2023-05-04T13:15:44.666Z,174.38
2023-05-04T13:16:51.067Z,185.62
2023-05-04T13:17:44.564Z,191.25
2023-05-04T13:18:44.465Z,185.62
2023-05-04T13:19:44.460Z,185.62
2023-05-04T13:20:44.445Z,185.62
2023-05-04T13:21:44.431Z,180.00
2023-05-04T13:22:44.432Z,180.00
2023-05-04T13:23:44.411Z,174.38
2023-05-04T13:24:44.412Z,174.38
2023-05-04T13:25:44.383Z,168.75
2023-05-04T13:26:44.383Z,168.75
2023-05-04T13:27:49.398Z,168.75
2023-05-04T13:28:44.361Z,168.75
2023-05-04T13:29:44.369Z,163.12
2023-05-04T13:30:44.337Z,163.12
2023-05-04T13:31:45.359Z,151.88
2023-05-04T13:32:44.398Z,157.50
2023-05-04T13:33:44.300Z,151.88
2023-05-04T13:34:44.294Z,151.88
2023-05-04T13:35:44.282Z,151.88
2023-05-04T13:36:44.278Z,163.12
2023-05-04T13:37:44.256Z,168.75
2023-05-04T13:38:49.275Z,168.75
2023-05-04T13:39:44.231Z,174.38
2023-05-04T13:40:44.269Z,174.38
2023-05-04T13:41:44.215Z,180.00
2023-05-04T13:42:44.210Z,180.00
2023-05-04T13:43:44.201Z,174.38
2023-05-04T13:44:44.180Z,168.75
2023-05-04T13:45:44.211Z,163.12
2023-05-04T13:46:44.277Z,157.50
2023-05-04T13:47:44.158Z,151.88
2023-05-04T13:48:44.130Z,151.88
2023-05-04T13:49:49.146Z,151.88
2023-05-04T13:50:44.126Z,151.88
2023-05-04T13:51:44.151Z,146.25
2023-05-04T13:52:44.102Z,146.25
2023-05-04T13:53:44.077Z,146.25
2023-05-04T13:54:44.084Z,146.25
2023-05-04T13:55:44.068Z,146.25
2023-05-04T13:56:44.045Z,140.62
2023-05-04T13:57:44.029Z,140.62
2023-05-04T13:58:44.046Z,129.38
2023-05-04T13:59:54.638Z,135.00
2023-05-04T14:00:50.169Z,140.62
2023-05-04T14:01:43.993Z,146.25
2023-05-04T14:02:44.038Z,146.25
2023-05-04T14:03:43.962Z,146.25
2023-05-04T14:04:44.490Z,146.25
2023-05-04T14:05:43.950Z,151.88
2023-05-04T14:06:43.929Z,157.50
2023-05-04T14:07:43.925Z,151.88
2023-05-04T14:08:43.908Z,151.88
2023-05-04T14:09:43.905Z,163.12
2023-05-04T14:10:43.912Z,157.50
2023-05-04T14:11:48.912Z,151.88
2023-05-04T14:12:43.889Z,146.25
2023-05-04T14:13:43.853Z,151.88
2023-05-04T14:14:43.845Z,151.88
2023-05-04T14:15:43.828Z,146.25
2023-05-04T14:16:43.906Z,146.25
2023-05-04T14:17:43.894Z,146.25
2023-05-04T14:18:43.803Z,140.62
2023-05-04T14:19:43.794Z,146.25
2023-05-04T14:20:43.784Z,140.62
2023-05-04T14:21:43.756Z,146.25
2023-05-04T14:22:48.802Z,146.25
2023-05-04T14:23:43.748Z,146.25
2023-05-04T14:24:43.728Z,146.25
2023-05-04T14:25:43.709Z,146.25
2023-05-04T14:26:43.712Z,146.25
2023-05-04T14:27:43.690Z,146.25
2023-05-04T14:28:43.725Z,146.25
2023-05-04T14:29:44.847Z,140.62
2023-05-04T14:30:43.656Z,140.62
2023-05-04T14:31:43.663Z,140.62
2023-05-04T14:32:43.734Z,140.62
2023-05-04T14:33:48.657Z,140.62
2023-05-04T14:34:43.629Z,140.62
2023-05-04T14:35:44.337Z,135.00
2023-05-04T14:36:43.591Z,135.00
2023-05-04T14:37:43.615Z,129.38
2023-05-04T14:38:43.576Z,129.38
2023-05-04T14:39:43.556Z,129.38
2023-05-04T14:40:43.568Z,129.38
2023-05-04T14:41:43.533Z,123.75
2023-05-04T14:42:43.532Z,123.75
2023-05-04T14:43:43.508Z,118.12
2023-05-04T14:44:48.526Z,118.12
2023-05-04T14:45:43.515Z,123.75
2023-05-04T14:46:43.491Z,123.75
2023-05-04T14:47:43.489Z,123.75
2023-05-04T14:48:43.478Z,123.75
2023-05-04T14:49:43.484Z,123.75
2023-05-04T14:50:43.439Z,118.12
2023-05-04T14:51:43.421Z,118.12
2023-05-04T14:52:43.442Z,123.75
2023-05-04T14:53:43.399Z,123.75
2023-05-04T14:54:43.393Z,123.75
2023-05-04T14:55:48.399Z,123.75
2023-05-04T14:56:43.376Z,129.38
2023-05-04T14:57:43.363Z,129.38
2023-05-04T14:58:43.364Z,129.38
2023-05-04T14:59:43.337Z,135.00
2023-05-04T15:00:43.323Z,135.00
2023-05-04T15:01:43.382Z,135.00
2023-05-04T15:02:43.392Z,140.62
2023-05-04T15:03:43.371Z,135.00
2023-05-04T15:04:43.312Z,135.00
2023-05-04T15:05:43.270Z,135.00
2023-05-04T15:06:48.286Z,129.38
2023-05-04T15:07:43.244Z,135.00
2023-05-04T15:08:43.243Z,135.00
2023-05-04T15:09:43.217Z,129.38
2023-05-04T15:10:43.245Z,129.38
2023-05-04T15:11:43.208Z,129.38
2023-05-04T15:12:43.233Z,135.00
2023-05-04T15:13:43.188Z,135.00
2023-05-04T15:14:43.165Z,129.38
2023-05-04T15:15:43.200Z,135.00
2023-05-04T15:16:43.197Z,135.00
2023-05-04T15:17:48.222Z,135.00
2023-05-04T15:18:43.124Z,140.62
2023-05-04T15:19:43.112Z,140.62
2023-05-04T15:20:43.128Z,140.62
2023-05-04T15:21:43.103Z,140.62
2023-05-04T15:22:43.098Z,140.62
2023-05-04T15:23:43.064Z,140.62
2023-05-04T15:24:43.053Z,140.62
2023-05-04T15:25:43.053Z,140.62
2023-05-04T15:26:43.037Z,140.62
2023-05-04T15:27:43.026Z,140.62
2023-05-04T15:28:48.071Z,140.62
2023-05-04T15:29:43.004Z,135.00
2023-05-04T15:30:42.989Z,135.00
2023-05-04T15:31:43.000Z,129.38
2023-05-04T15:32:42.998Z,123.75
2023-05-04T15:33:42.951Z,129.38
2023-05-04T15:34:50.635Z,123.75
2023-05-04T15:35:43.928Z,123.75
2023-05-04T15:36:42.935Z,123.75
2023-05-04T15:37:42.906Z,118.12
2023-05-04T15:38:42.905Z,118.12
2023-05-04T15:39:47.912Z,123.75
2023-05-04T15:40:42.883Z,123.75
2023-05-04T15:41:42.872Z,118.12
2023-05-04T15:42:42.854Z,123.75
2023-05-04T15:43:42.835Z,123.75
2023-05-04T15:44:42.836Z,129.38
2023-05-04T15:45:42.814Z,123.75
2023-05-04T15:46:42.845Z,129.38
2023-05-04T15:47:42.841Z,129.38
2023-05-04T15:48:42.783Z,129.38
2023-05-04T15:49:42.776Z,135.00
2023-05-04T15:50:47.783Z,135.00
2023-05-04T15:51:42.747Z,135.00
2023-05-04T15:52:42.769Z,135.00
2023-05-04T15:53:42.732Z,135.00
2023-05-04T15:54:42.734Z,129.38
2023-05-04T15:55:42.702Z,129.38
2023-05-04T15:56:42.695Z,129.38
2023-05-04T15:57:42.695Z,123.75
2023-05-04T15:58:42.714Z,118.12
2023-05-04T15:59:42.661Z,123.75
2023-05-04T16:00:42.660Z,118.12
2023-05-04T16:01:47.765Z,118.12
2023-05-04T16:02:42.723Z,118.12
2023-05-04T16:03:42.657Z,118.12
2023-05-04T16:04:42.670Z,112.50
2023-05-04T16:05:42.589Z,112.50
2023-05-04T16:06:42.579Z,112.50
2023-05-04T16:07:42.583Z,106.88
2023-05-04T16:08:42.611Z,106.88
2023-05-04T16:09:42.545Z,106.88
2023-05-04T16:10:42.556Z,101.25
2023-05-04T16:11:42.523Z,101.25
2023-05-04T16:12:47.571Z,106.88
2023-05-04T16:13:42.502Z,101.25
2023-05-04T16:14:42.493Z,95.62
2023-05-04T16:15:42.478Z,95.62
2023-05-04T16:16:42.518Z,90.00
2023-05-04T16:17:42.491Z,90.00
2023-05-04T16:18:42.457Z,90.00
2023-05-04T16:19:42.438Z,90.00
2023-05-04T16:20:42.434Z,84.38
2023-05-04T16:21:42.435Z,84.38
2023-05-04T16:22:42.428Z,84.38
2023-05-04T16:23:47.427Z,84.38
2023-05-04T16:24:42.383Z,78.75
2023-05-04T16:25:42.365Z,84.38
2023-05-04T16:26:42.394Z,84.38
2023-05-04T16:27:42.353Z,78.75
2023-05-04T16:28:42.373Z,78.75
2023-05-04T16:29:42.322Z,78.75
2023-05-04T16:30:42.412Z,78.75
2023-05-04T16:31:42.367Z,78.75
2023-05-04T16:32:42.362Z,73.12
2023-05-04T16:33:42.281Z,61.88
2023-05-04T16:34:47.324Z,61.88
2023-05-04T16:35:42.270Z,61.88
2023-05-04T16:36:42.258Z,61.88
2023-05-04T16:37:42.235Z,61.88
2023-05-04T16:38:42.255Z,61.88
2023-05-04T16:39:42.242Z,73.12
2023-05-04T16:40:42.246Z,67.50
2023-05-04T16:41:42.197Z,67.50
2023-05-04T16:42:42.208Z,61.88
2023-05-04T16:43:42.182Z,67.50
2023-05-04T16:44:42.160Z,73.12
2023-05-04T16:45:47.193Z,78.75
2023-05-04T16:46:42.182Z,78.75
2023-05-04T16:47:42.249Z,78.75
2023-05-04T16:48:42.115Z,78.75
2023-05-04T16:49:42.100Z,73.12
2023-05-04T16:50:42.117Z,73.12
2023-05-04T16:51:42.090Z,61.88
2023-05-04T16:52:42.085Z,61.88
2023-05-04T16:53:42.064Z,67.50
2023-05-04T16:54:42.057Z,67.50
2023-05-04T16:55:42.063Z,73.12
2023-05-04T16:56:47.054Z,73.12
2023-05-04T16:57:42.017Z,73.12
2023-05-04T16:58:42.029Z,67.50
2023-05-04T16:59:41.995Z,67.50
2023-05-04T17:00:41.979Z,67.50
2023-05-04T17:01:42.021Z,73.12
2023-05-04T17:02:42.334Z,73.12
2023-05-04T17:03:42.048Z,67.50
2023-05-04T17:04:41.963Z,61.88
2023-05-04T17:05:41.920Z,56.25
2023-05-04T17:06:41.916Z,61.88
2023-05-04T17:07:46.919Z,67.50
2023-05-04T17:08:41.893Z,61.88
2023-05-04T17:09:41.900Z,56.25
2023-05-04T17:10:41.890Z,61.88
2023-05-04T17:11:41.895Z,61.88
2023-05-04T17:12:42.176Z,61.88
2023-05-04T17:13:41.838Z,67.50
2023-05-04T17:14:41.856Z,67.50
2023-05-04T17:15:41.831Z,67.50
2023-05-04T17:16:49.345Z,67.50
2023-05-04T17:17:41.856Z,67.50
2023-05-04T17:18:46.825Z,73.12
2023-05-04T17:19:41.763Z,61.88
2023-05-04T17:20:41.772Z,61.88
2023-05-04T17:21:41.745Z,61.88
2023-05-04T17:22:41.764Z,61.88
2023-05-04T17:23:41.736Z,67.50
2023-05-04T17:24:44.010Z,61.88
2023-05-04T17:25:41.701Z,67.50
2023-05-04T17:26:41.731Z,67.50
2023-05-04T17:27:41.705Z,67.50
2023-05-04T17:28:41.680Z,67.50
2023-05-04T17:29:46.673Z,67.50